Time;durP1;ratioP1;P1;durP2;ratioP2;P2;SDS_P1;SDS_P2;PMS_P1;PMS_P2;Temp;Humidity;BMP_temperature;BMP_pressure;BME280_temperature;BME280_humidity;BME280_pressure;Samples;Min_cycle;Max_cycle;Signal;HPM_P1;HPM_P2
2022/03/17 05:43:06;;;;;;;36.23;28.37;;;4.50;92.80;;;;;;5064668;23;20239;-84
2022/03/17 05:45:35;;;;;;;39.40;29.43;;;4.50;92.90;;;;;;4982844;28;20240;-88
2022/03/17 05:48:14;;;;;;;37.13;29.03;;;4.50;93.00;;;;;;4967862;28;20213;-85
2022/03/17 05:50:43;;;;;;;36.13;28.57;;;4.50;93.10;;;;;;4968800;28;20234;-85
2022/03/17 05:53:12;;;;;;;38.93;28.83;;;4.50;93.10;;;;;;4984909;28;20287;-86
2022/03/17 05:55:39;;;;;;;38.63;29.20;;;4.50;93.00;;;;;;5000512;23;20219;-87
2022/03/17 05:58:09;;;;;;;37.57;28.07;;;4.50;92.90;;;;;;4992641;28;20195;-88
2022/03/17 06:00:36;;;;;;;37.77;29.67;;;4.60;92.80;;;;;;5022351;28;20238;-91
2022/03/17 06:03:05;;;;;;;39.20;30.10;;;4.70;92.70;;;;;;5025644;28;20748;-84
2022/03/17 06:05:33;;;;;;;41.67;28.77;;;4.70;92.50;;;;;;5001014;28;20693;-87
2022/03/17 06:08:12;;;;;;;36.20;28.07;;;4.70;92.50;;;;;;5027033;28;20210;-89
2022/03/17 06:10:40;;;;;;;34.40;27.70;;;5.10;92.90;;;;;;5008322;28;20230;-87
2022/03/17 06:15:49;;;;;;;39.83;29.13;;;5.30;91.10;;;;;;4997558;28;20592;-88
2022/03/17 06:18:16;;;;;;;34.70;28.30;;;5.30;91.20;;;;;;5015429;28;20282;-87
2022/03/17 06:20:43;;;;;;;38.00;28.10;;;5.30;91.80;;;;;;4988002;28;20231;-89
2022/03/17 06:23:15;;;;;;;34.60;28.40;;;5.30;91.40;;;;;;5023393;28;20620;-90
2022/03/17 06:25:42;;;;;;;35.27;27.87;;;5.30;91.30;;;;;;5001653;28;20227;-88
2022/03/17 06:31:32;;;;;;;39.43;28.77;;;5.40;91.10;;;;;;4999782;28;20199;-92
2022/03/17 06:34:42;;;;;;;36.87;28.07;;;5.40;90.90;;;;;;5004284;28;20188;-90
2022/03/17 06:40:32;;;;;;;36.87;29.33;;;5.70;90.20;;;;;;5005028;28;20589;-92
2022/03/17 06:43:01;;;;;;;35.00;28.37;;;5.70;89.40;;;;;;5004560;28;20211;-92
2022/03/17 06:48:51;;;;;;;34.80;27.10;;;5.70;90.10;;;;;;5008240;28;20274;-92
2022/03/17 06:51:19;;;;;;;34.23;26.57;;;5.70;89.40;;;;;;5019232;28;20295;-92
2022/03/17 06:54:02;;;;;;;34.80;26.63;;;5.90;89.50;;;;;;5007582;28;20215;-92
2022/03/17 06:56:31;;;;;;;32.27;26.17;;;6.10;87.80;;;;;;4992061;28;20242;-91
2022/03/17 06:58:58;;;;;;;34.80;27.60;;;6.30;87.40;;;;;;4984670;28;20231;-92
2022/03/17 07:01:25;;;;;;;35.47;26.37;;;6.50;85.60;;;;;;4966055;28;20232;-92
2022/03/17 07:03:52;;;;;;;33.43;26.77;;;6.70;85.70;;;;;;4977663;28;20201;-92
2022/03/17 07:09:03;;;;;;;35.10;27.10;;;6.90;81.90;;;;;;4979482;28;20208;-92
2022/03/17 07:11:30;;;;;;;34.40;26.60;;;6.90;82.70;;;;;;4988501;28;20227;-92
2022/03/17 07:13:58;;;;;;;34.87;26.83;;;7.10;81.50;;;;;;5008349;28;20196;-92
2022/03/17 07:16:25;;;;;;;33.70;26.20;;;7.10;79.30;;;;;;5009021;28;20267;-91
2022/03/17 07:19:09;;;;;;;33.42;27.42;;;7.20;79.10;;;;;;5004426;28;20278;-92
2022/03/17 07:22:07;;;;;;;35.80;27.48;;;7.20;78.10;;;;;;5007615;28;20284;-92
2022/03/17 07:56:14;;;;;;;27.83;24.77;;;7.90;72.70;;;;;;4958973;28;20232;-92
2022/03/17 08:02:29;;;;;;;29.10;25.58;;;8.00;71.50;;;;;;4973061;28;20594;-91
2022/03/17 08:05:32;;;;;;;32.97;24.80;;;8.10;71.00;;;;;;4995119;28;20280;-92
2022/03/17 15:16:31;;;;;;;32.17;25.52;;;10.40;68.60;;;;;;5015282;28;20231;-90
2022/03/17 15:18:58;;;;;;;31.60;25.63;;;10.30;69.00;;;;;;5009821;28;20209;-91
2022/03/17 15:24:38;;;;;;;37.15;26.55;;;10.40;69.00;;;;;;5025721;28;20203;-91
2022/03/17 15:33:22;;;;;;;39.95;27.73;;;10.40;70.50;;;;;;5029761;28;20218;-90
2022/03/17 15:38:36;;;;;;;35.75;28.25;;;10.30;73.30;;;;;;5018511;28;20191;-91
2022/03/17 15:57:53;;;;;;;39.20;29.23;;;10.10;75.00;;;;;;5090069;23;20297;-89
2022/03/17 16:00:27;;;;;;;37.58;30.83;;;10.10;75.80;;;;;;5026617;28;20230;-89
2022/03/17 16:03:06;;;;;;;37.83;30.40;;;10.20;75.30;;;;;;5039963;28;20608;-90
2022/03/17 16:16:19;;;;;;;43.72;30.42;;;9.90;78.80;;;;;;5039936;28;20198;-90
2022/03/17 16:18:55;;;;;;;41.67;30.55;;;9.80;78.10;;;;;;5042120;28;20252;-92
2022/03/17 16:31:50;;;;;;;40.63;29.55;;;9.70;79.10;;;;;;5044812;28;20202;-89
2022/03/17 16:34:31;;;;;;;38.70;31.33;;;9.80;79.50;;;;;;5039737;28;20202;-89
2022/03/17 16:36:58;;;;;;;35.63;29.35;;;9.70;79.70;;;;;;5013206;28;20241;-90
2022/03/17 16:39:36;;;;;;;37.17;31.40;;;9.80;79.60;;;;;;5010284;28;20213;-91
2022/03/17 16:42:52;;;;;;;45.65;31.20;;;9.80;78.90;;;;;;5023567;28;20254;-91
2022/03/17 16:48:44;;;;;;;41.92;30.58;;;9.60;79.20;;;;;;5035246;28;20218;-90
2022/03/17 16:51:24;;;;;;;41.42;29.92;;;9.60;79.60;;;;;;5021771;28;20243;-90
2022/03/17 16:54:13;;;;;;;36.88;29.73;;;9.70;78.90;;;;;;5039208;28;20248;-90
2022/03/17 16:56:41;;;;;;;43.72;30.73;;;9.70;79.10;;;;;;5035850;28;20253;-89
2022/03/17 16:59:09;;;;;;;37.17;29.80;;;9.60;79.30;;;;;;5041454;28;20218;-90
2022/03/17 17:01:40;;;;;;;43.15;29.80;;;9.60;79.50;;;;;;5021429;28;20226;-89
2022/03/17 17:04:08;;;;;;;39.83;29.27;;;9.50;79.60;;;;;;5022986;28;20194;-89
2022/03/17 17:07:16;;;;;;;41.25;30.65;;;9.50;80.40;;;;;;5039280;28;20233;-88
2022/03/17 17:09:46;;;;;;;43.20;29.27;;;9.50;81.10;;;;;;5038310;28;20642;-88
2022/03/17 17:12:42;;;;;;;41.10;30.33;;;9.40;80.80;;;;;;5041749;28;20329;-87
2022/03/17 17:18:31;;;;;;;39.13;28.10;;;9.50;80.20;;;;;;5046164;28;20177;-88
2022/03/17 17:21:01;;;;;;;35.58;27.15;;;9.50;80.20;;;;;;5045751;28;20565;-87
2022/03/17 17:33:19;;;;;;;36.85;27.27;;;9.40;79.40;;;;;;5028932;28;20609;-89
2022/03/17 17:40:08;;;;;;;40.28;27.85;;;9.60;78.70;;;;;;5025877;28;20251;-88
2022/03/17 17:46:01;;;;;;;38.60;29.42;;;9.50;78.70;;;;;;5031622;28;20202;-88
2022/03/17 17:48:45;;;;;;;40.38;28.90;;;9.50;79.40;;;;;;5011127;28;20219;-89
2022/03/17 17:51:13;;;;;;;39.47;28.25;;;9.40;79.00;;;;;;5038794;28;20633;-89
2022/03/17 17:53:48;;;;;;;34.55;28.75;;;9.50;79.10;;;;;;5010647;28;20210;-87
2022/03/17 17:56:16;;;;;;;38.45;29.08;;;9.50;79.60;;;;;;5041614;28;20237;-88
2022/03/17 17:58:44;;;;;;;41.05;29.77;;;9.50;80.20;;;;;;5042677;28;20218;-89
2022/03/17 18:05:22;;;;;;;42.63;29.38;;;9.40;80.00;;;;;;5045120;28;20328;-89
2022/03/17 18:18:27;;;;;;;40.30;30.98;;;9.40;79.30;;;;;;5047181;28;20261;-88
2022/03/17 18:20:55;;;;;;;38.42;29.67;;;9.40;79.40;;;;;;5047542;28;20230;-89
2022/03/17 18:23:57;;;;;;;39.65;29.92;;;9.40;79.60;;;;;;5028686;28;20209;-88
2022/03/17 18:26:46;;;;;;;40.22;30.38;;;9.40;81.70;;;;;;5042058;28;20242;-88
2022/03/17 18:29:53;;;;;;;42.40;30.15;;;9.30;80.90;;;;;;5045198;28;20221;-89
2022/03/17 18:35:55;;;;;;;44.05;33.95;;;9.40;85.60;;;;;;5042325;28;20186;-87
2022/03/17 18:58:06;;;;;;;46.08;31.90;;;10.10;77.00;;;;;;5977827;23;20219;-87
2022/03/17 19:00:34;;;;;;;41.33;29.48;;;10.00;76.60;;;;;;4987823;28;20280;-89
2022/03/17 19:03:36;;;;;;;47.17;31.98;;;9.90;76.80;;;;;;4983506;28;20256;-87
2022/03/17 20:21:12;;;;;;;46.83;34.97;;;8.90;85.20;;;;;;5015023;28;20231;-87
2022/03/17 20:26:47;;;;;;;45.80;34.75;;;8.90;84.80;;;;;;5017297;28;20233;-88
2022/03/17 20:29:35;;;;;;;47.92;34.92;;;8.90;84.80;;;;;;5024949;28;20222;-87
2022/03/17 20:32:59;;;;;;;49.80;36.35;;;8.90;84.80;;;;;;5015526;28;20227;-87
2022/03/17 21:24:55;;;;;;;50.97;36.13;;;8.60;87.70;;;;;;5041428;28;20221;-88
